Time;durP1;ratioP1;P1;durP2;ratioP2;P2;SDS_P1;SDS_P2;PMS_P1;PMS_P2;Temp;Humidity;BMP_temperature;BMP_pressure;BME280_temperature;BME280_humidity;BME280_pressure;Samples;Min_cycle;Max_cycle;Signal;HPM_P1;HPM_P2
2022/11/25 00:02:18;;;;;;;12.80;7.00;;;6.80;99.90;;;;;;10379222;28;20226;-79
2022/11/25 00:07:22;;;;;;;11.83;9.07;;;6.80;99.90;;;;;;10382557;28;20252;-80
2022/11/25 00:12:24;;;;;;;8.90;7.60;;;6.90;99.90;;;;;;10389471;28;20194;-81
2022/11/25 00:17:26;;;;;;;8.87;6.23;;;6.80;99.90;;;;;;10376480;28;20214;-81
2022/11/25 00:22:29;;;;;;;7.67;6.43;;;6.90;99.90;;;;;;10391689;28;20218;-79
2022/11/25 00:27:31;;;;;;;6.80;6.10;;;6.80;99.90;;;;;;10407272;28;20301;-81
2022/11/25 00:32:34;;;;;;;8.93;6.00;;;6.80;99.90;;;;;;10400867;28;20191;-80
2022/11/25 00:37:38;;;;;;;9.13;6.30;;;6.80;99.90;;;;;;10407901;28;20225;-81
2022/11/25 00:47:59;;;;;;;8.13;7.33;;;6.80;99.90;;;;;;10400491;28;20217;-79
2022/11/25 00:53:03;;;;;;;10.40;7.47;;;6.90;99.90;;;;;;10427141;28;20198;-79
2022/11/25 00:58:05;;;;;;;10.90;6.77;;;6.90;99.90;;;;;;10387531;28;20674;-80
2022/11/25 01:03:07;;;;;;;8.50;7.10;;;7.00;99.90;;;;;;10410023;28;20221;-80
2022/11/25 01:08:10;;;;;;;8.83;7.93;;;7.10;99.90;;;;;;10374227;22;20729;-79
2022/11/25 01:13:13;;;;;;;7.87;7.07;;;7.20;99.90;;;;;;10334990;28;20566;-78
2022/11/25 01:18:15;;;;;;;7.85;6.65;;;7.20;99.90;;;;;;10322955;28;20234;-78
2022/11/25 01:23:18;;;;;;;7.93;6.20;;;7.30;99.90;;;;;;10275768;28;20435;-80
2022/11/25 01:28:20;;;;;;;10.03;5.97;;;7.40;99.90;;;;;;10344386;28;20219;-78
2022/11/25 01:33:24;;;;;;;7.73;5.83;;;7.40;99.90;;;;;;10289996;28;20195;-79
2022/11/25 01:38:27;;;;;;;6.60;6.00;;;7.40;99.90;;;;;;10342277;28;20231;-79
2022/11/25 01:43:30;;;;;;;8.40;5.87;;;7.50;99.90;;;;;;10323309;28;20196;-79
2022/11/25 01:48:39;;;;;;;6.57;5.77;;;7.50;99.90;;;;;;10288610;28;20212;-77
2022/11/25 01:53:43;;;;;;;7.37;5.40;;;7.50;99.90;;;;;;10330113;28;20244;-78
2022/11/25 01:58:48;;;;;;;7.03;5.40;;;7.60;99.90;;;;;;10292983;28;20223;-78
2022/11/25 02:03:52;;;;;;;7.17;6.43;;;7.60;99.90;;;;;;10325399;28;20203;-78
2022/11/25 02:09:01;;;;;;;8.47;5.87;;;7.50;99.90;;;;;;10277182;28;20243;-78
2022/11/25 02:14:03;;;;;;;8.80;6.20;;;7.60;99.90;;;;;;10294974;28;20218;-78
2022/11/25 02:19:06;;;;;;;6.80;5.57;;;7.60;99.90;;;;;;10294652;28;20746;-78
2022/11/25 02:24:18;;;;;;;5.90;5.40;;;7.60;99.90;;;;;;10313408;28;20956;-79
2022/11/25 02:29:23;;;;;;;7.70;5.60;;;7.60;99.90;;;;;;10273896;28;20537;-77
2022/11/25 02:34:25;;;;;;;6.90;5.90;;;7.80;99.90;;;;;;10311360;28;20287;-78
2022/11/25 02:39:28;;;;;;;5.90;5.33;;;7.70;99.90;;;;;;10275706;28;20222;-77
2022/11/25 02:44:33;;;;;;;6.53;5.90;;;7.60;99.90;;;;;;10287259;28;20204;-77
2022/11/25 02:49:35;;;;;;;7.80;7.00;;;7.50;99.90;;;;;;10299841;28;20191;-78
2022/11/25 02:54:38;;;;;;;9.63;6.87;;;7.50;99.90;;;;;;10284501;28;20200;-78
2022/11/25 02:59:41;;;;;;;9.93;6.70;;;7.50;99.90;;;;;;10332777;28;20222;-78
2022/11/25 03:04:43;;;;;;;7.10;5.67;;;7.40;99.90;;;;;;10303805;28;20203;-78
2022/11/25 03:09:45;;;;;;;6.97;5.30;;;7.40;99.90;;;;;;10331737;28;20237;-80
2022/11/25 03:14:49;;;;;;;6.03;5.10;;;7.30;99.90;;;;;;10286155;28;20291;-78
2022/11/25 03:19:51;;;;;;;6.47;5.87;;;7.30;99.90;;;;;;10315949;28;20219;-78
2022/11/25 03:24:53;;;;;;;6.93;6.17;;;7.20;99.90;;;;;;10304147;28;20632;-78
2022/11/25 03:29:57;;;;;;;6.93;6.27;;;7.10;99.90;;;;;;10325263;28;20199;-77
2022/11/25 03:34:59;;;;;;;10.33;6.00;;;7.10;99.90;;;;;;10292386;28;20257;-79
2022/11/25 03:40:02;;;;;;;6.80;4.40;;;7.00;99.90;;;;;;10322310;28;20734;-77
2022/11/25 03:45:07;;;;;;;7.00;5.47;;;6.90;99.90;;;;;;10314225;28;20238;-79
2022/11/25 03:50:11;;;;;;;7.87;6.23;;;6.90;99.90;;;;;;10285750;28;20196;-78
2022/11/25 03:55:13;;;;;;;6.50;5.33;;;6.90;99.90;;;;;;10310599;28;20269;-78
2022/11/25 04:00:20;;;;;;;9.33;6.17;;;6.90;99.90;;;;;;10284460;28;20262;-78
2022/11/25 04:05:30;;;;;;;9.47;6.87;;;6.90;99.90;;;;;;10316279;28;20237;-80
2022/11/25 04:10:36;;;;;;;9.70;6.03;;;6.80;99.90;;;;;;10289895;28;20188;-80
2022/11/25 04:15:46;;;;;;;5.97;5.47;;;6.80;99.90;;;;;;10319544;28;20250;-81
2022/11/25 04:20:48;;;;;;;6.10;5.50;;;6.90;99.90;;;;;;10309191;28;20226;-80
2022/11/25 04:25:51;;;;;;;7.10;6.60;;;6.90;99.90;;;;;;10315638;28;20687;-78
2022/11/25 04:31:09;;;;;;;6.60;6.00;;;6.80;99.90;;;;;;10287585;28;20259;-80
2022/11/25 04:36:14;;;;;;;5.67;4.83;;;6.90;99.90;;;;;;10320393;28;20244;-80
2022/11/25 04:41:16;;;;;;;6.57;5.97;;;6.90;99.90;;;;;;10293206;28;20224;-79
2022/11/25 04:46:24;;;;;;;7.37;6.23;;;6.90;99.90;;;;;;10317888;28;20268;-80
2022/11/25 04:51:26;;;;;;;7.00;6.37;;;6.90;99.90;;;;;;10319111;28;20202;-79
2022/11/25 04:56:33;;;;;;;7.37;5.67;;;6.90;99.90;;;;;;10293554;28;20224;-79
2022/11/25 05:01:37;;;;;;;8.03;5.27;;;7.00;99.90;;;;;;10342404;28;20233;-80
2022/11/25 05:07:04;;;;;;;6.80;6.10;;;7.00;99.90;;;;;;10348009;28;20218;-77
2022/11/25 05:12:10;;;;;;;8.53;7.70;;;7.00;99.90;;;;;;10276560;28;20663;-77
2022/11/25 05:17:16;;;;;;;10.60;9.57;;;7.00;99.90;;;;;;10317122;28;20309;-77
2022/11/25 05:22:22;;;;;;;10.23;9.37;;;7.00;99.90;;;;;;10278042;28;20304;-76
2022/11/25 05:27:25;;;;;;;9.50;8.60;;;7.10;99.90;;;;;;10314076;28;20215;-78
2022/11/25 05:32:29;;;;;;;9.70;8.90;;;7.10;99.90;;;;;;10283930;28;20220;-80
2022/11/25 05:37:34;;;;;;;9.97;9.17;;;7.10;99.90;;;;;;10324932;28;20683;-78
2022/11/25 05:42:40;;;;;;;10.57;9.50;;;7.10;99.90;;;;;;10276579;28;20278;-78
2022/11/25 05:47:45;;;;;;;11.67;10.47;;;7.10;99.90;;;;;;10285308;28;20590;-78
2022/11/25 05:52:52;;;;;;;24.13;18.20;;;7.00;99.90;;;;;;10323933;28;20310;-79
2022/11/25 05:57:54;;;;;;;10.43;9.57;;;7.00;99.90;;;;;;10316639;28;20226;-79
2022/11/25 06:02:58;;;;;;;25.67;14.43;;;7.00;99.90;;;;;;10288877;28;20247;-79
2022/11/25 06:08:00;;;;;;;18.47;14.33;;;7.00;99.90;;;;;;10338357;28;20594;-79
2022/11/25 06:13:03;;;;;;;13.53;12.23;;;6.90;99.90;;;;;;10306954;28;20225;-81
2022/11/25 06:18:09;;;;;;;15.63;14.23;;;6.90;99.90;;;;;;10274789;28;20215;-79
2022/11/25 06:23:11;;;;;;;13.37;12.17;;;6.80;99.90;;;;;;10316342;28;20234;-77
2022/11/25 06:28:15;;;;;;;15.33;13.73;;;6.80;99.90;;;;;;10277193;28;20223;-78
2022/11/25 06:33:26;;;;;;;13.10;9.57;;;6.70;99.90;;;;;;10315463;28;20202;-79
2022/11/25 06:38:29;;;;;;;9.83;9.03;;;6.70;99.90;;;;;;10285208;28;20250;-78
2022/11/25 06:43:32;;;;;;;9.97;9.13;;;6.60;99.90;;;;;;10313044;28;20266;-78
2022/11/25 06:48:36;;;;;;;11.40;10.30;;;6.60;99.90;;;;;;10331680;28;20220;-79
2022/11/25 06:53:39;;;;;;;12.93;9.20;;;6.60;99.90;;;;;;10303702;28;20660;-79
2022/11/25 06:58:42;;;;;;;9.23;8.43;;;6.50;99.90;;;;;;10317781;28;20741;-81
2022/11/25 07:03:47;;;;;;;12.77;10.60;;;6.50;99.90;;;;;;10310445;28;20215;-81
2022/11/25 07:08:50;;;;;;;9.73;8.73;;;6.40;99.90;;;;;;10359318;23;20281;-79
2022/11/25 07:13:53;;;;;;;12.27;9.57;;;6.50;99.90;;;;;;10342361;28;20282;-78
2022/11/25 07:18:58;;;;;;;10.37;8.37;;;6.60;99.90;;;;;;10356436;28;20222;-78
2022/11/25 07:24:02;;;;;;;12.67;9.73;;;6.70;99.90;;;;;;10349179;28;20246;-79
2022/11/25 07:29:07;;;;;;;11.33;10.13;;;6.90;99.90;;;;;;10346058;28;20273;-80
2022/11/25 07:34:13;;;;;;;14.23;11.70;;;7.10;99.90;;;;;;10331576;28;20206;-79
2022/11/25 07:39:17;;;;;;;11.47;9.87;;;7.20;99.90;;;;;;10358119;28;20306;-80
2022/11/25 07:44:20;;;;;;;14.83;8.00;;;7.30;99.90;;;;;;10347755;28;20215;-80
2022/11/25 07:49:29;;;;;;;14.77;9.37;;;7.50;99.90;;;;;;10349302;28;20215;-78
2022/11/25 07:54:32;;;;;;;9.60;8.00;;;7.60;99.90;;;;;;10357225;28;20230;-78
2022/11/25 07:59:34;;;;;;;30.13;11.40;;;7.80;99.90;;;;;;10375287;28;20227;-78
2022/11/25 08:04:38;;;;;;;24.70;11.10;;;7.90;99.90;;;;;;10374656;28;20211;-77
2022/11/25 08:09:41;;;;;;;10.20;7.77;;;8.10;99.90;;;;;;10378775;28;20219;-78
2022/11/25 08:14:43;;;;;;;8.17;7.10;;;8.20;99.90;;;;;;10372485;28;20194;-78
2022/11/25 08:19:46;;;;;;;10.50;8.80;;;8.30;99.90;;;;;;10365604;28;20241;-79
2022/11/25 08:24:48;;;;;;;17.83;13.20;;;8.50;99.90;;;;;;10342444;28;20253;-79
2022/11/25 08:29:50;;;;;;;11.70;8.13;;;8.50;99.90;;;;;;10344013;28;20195;-80
2022/11/25 08:34:54;;;;;;;11.43;7.93;;;8.60;99.90;;;;;;10363388;28;20192;-79
2022/11/25 08:39:56;;;;;;;8.40;7.77;;;8.70;99.90;;;;;;10351948;28;20199;-79
2022/11/25 08:44:58;;;;;;;8.87;6.90;;;8.70;99.90;;;;;;10344174;28;20199;-79
2022/11/25 08:50:02;;;;;;;7.90;6.60;;;8.80;99.90;;;;;;10346187;28;20606;-78
2022/11/25 08:55:05;;;;;;;11.70;6.70;;;8.90;99.90;;;;;;10346267;28;20219;-79
2022/11/25 09:00:08;;;;;;;10.77;7.13;;;9.00;99.90;;;;;;10345980;28;20204;-80
2022/11/25 09:05:15;;;;;;;7.20;5.70;;;9.20;99.90;;;;;;10328118;28;20242;-79
2022/11/25 09:10:17;;;;;;;10.50;9.40;;;9.10;99.90;;;;;;10320572;28;20223;-80
2022/11/25 09:15:19;;;;;;;12.53;10.40;;;9.10;99.90;;;;;;10338940;28;20226;-79
2022/11/25 09:20:24;;;;;;;7.63;6.60;;;9.10;99.90;;;;;;10348658;28;20214;-80
2022/11/25 09:25:27;;;;;;;15.13;6.53;;;9.20;99.90;;;;;;10349258;28;20250;-78
2022/11/25 09:30:29;;;;;;;15.00;6.40;;;9.20;99.90;;;;;;10333040;28;20200;-79
2022/11/25 09:35:33;;;;;;;7.40;5.63;;;9.20;99.90;;;;;;10347453;28;20225;-79
2022/11/25 09:40:41;;;;;;;16.90;6.37;;;9.30;99.90;;;;;;10355535;28;20225;-79
2022/11/25 09:51:20;;;;;;;8.63;5.20;;;9.60;99.90;;;;;;10357062;28;20202;-79
2022/11/25 09:56:31;;;;;;;9.80;5.40;;;9.80;99.90;;;;;;10349833;28;20717;-79
2022/11/25 10:01:40;;;;;;;11.83;5.67;;;9.90;99.90;;;;;;10347366;28;20286;-79
2022/11/25 10:06:48;;;;;;;27.30;7.03;;;10.10;99.90;;;;;;10323317;28;20308;-79
2022/11/25 10:11:52;;;;;;;9.33;6.23;;;10.20;99.90;;;;;;10344372;28;20199;-79
2022/11/25 10:17:02;;;;;;;11.33;7.60;;;10.30;99.90;;;;;;10323864;28;20224;-79
2022/11/25 10:22:17;;;;;;;22.80;10.17;;;10.40;99.90;;;;;;10327546;28;20456;-79
2022/11/25 10:27:24;;;;;;;17.30;9.73;;;10.50;99.90;;;;;;10345675;28;20215;-79
2022/11/25 10:32:29;;;;;;;11.93;7.60;;;10.50;99.90;;;;;;10344466;28;20187;-78
2022/11/25 10:37:39;;;;;;;8.70;6.20;;;10.60;99.90;;;;;;10344317;28;20262;-80
2022/11/25 10:42:42;;;;;;;12.40;8.10;;;10.80;99.90;;;;;;10344400;28;20679;-80
2022/11/25 10:48:09;;;;;;;7.80;5.20;;;10.90;99.90;;;;;;10333418;28;20245;-79
2022/11/25 10:53:17;;;;;;;4.00;3.50;;;11.10;99.90;;;;;;10345141;28;20199;-79
2022/11/25 10:58:27;;;;;;;6.80;4.07;;;11.10;99.90;;;;;;10346089;28;20230;-79
2022/11/25 11:03:29;;;;;;;5.73;4.03;;;11.20;99.90;;;;;;10353145;28;20278;-79
2022/11/25 11:08:39;;;;;;;4.00;3.40;;;11.20;99.90;;;;;;10340275;28;20230;-79
2022/11/25 11:13:42;;;;;;;8.70;5.90;;;11.20;99.90;;;;;;10325292;28;20200;-78
2022/11/25 11:18:44;;;;;;;5.27;4.30;;;11.20;99.90;;;;;;10356565;28;20255;-79
2022/11/25 11:23:50;;;;;;;9.17;3.73;;;11.20;99.90;;;;;;10341337;28;20310;-79
2022/11/25 11:29:02;;;;;;;10.67;6.20;;;11.10;99.90;;;;;;10339910;28;20238;-79
2022/11/25 11:34:23;;;;;;;9.30;8.30;;;11.00;99.90;;;;;;10339810;28;20219;-79
2022/11/25 11:39:43;;;;;;;10.53;9.13;;;11.00;99.90;;;;;;10323542;28;20222;-79
2022/11/25 11:45:00;;;;;;;10.40;8.27;;;10.90;99.90;;;;;;10339976;28;20230;-79
2022/11/25 11:50:26;;;;;;;10.17;8.17;;;10.80;99.90;;;;;;10340950;28;20194;-79
2022/11/25 11:55:51;;;;;;;18.37;9.37;;;10.80;99.90;;;;;;10336316;28;20679;-79
2022/11/25 12:01:02;;;;;;;7.50;6.80;;;10.70;99.90;;;;;;10339865;28;20207;-80
2022/11/25 12:06:06;;;;;;;11.03;8.90;;;10.60;99.90;;;;;;10346958;28;20281;-79
2022/11/25 12:11:16;;;;;;;8.80;7.70;;;10.60;99.90;;;;;;10349488;28;20195;-79
2022/11/25 12:16:24;;;;;;;13.30;10.80;;;10.60;99.90;;;;;;10348063;28;20662;-79
2022/11/25 12:21:37;;;;;;;14.93;9.77;;;10.60;99.90;;;;;;10347097;28;20255;-79
2022/11/25 12:26:49;;;;;;;10.50;9.40;;;10.50;99.90;;;;;;10339390;28;20231;-79
2022/11/25 12:31:58;;;;;;;13.13;10.97;;;10.40;99.90;;;;;;10346431;28;20736;-79
2022/11/25 12:37:10;;;;;;;10.27;8.93;;;10.30;99.90;;;;;;10344657;28;20573;-79
2022/11/25 12:42:18;;;;;;;11.23;9.83;;;10.30;99.90;;;;;;10347043;28;20277;-79
2022/11/25 12:47:21;;;;;;;12.80;11.50;;;10.40;99.90;;;;;;10346815;28;20211;-79
2022/11/25 12:52:35;;;;;;;10.53;8.57;;;10.40;99.90;;;;;;10325179;28;20552;-78
2022/11/25 12:57:55;;;;;;;8.27;7.27;;;10.50;99.90;;;;;;10344485;28;20219;-79
2022/11/25 13:03:42;;;;;;;11.60;6.90;;;10.50;99.90;;;;;;10346530;28;20284;-79
2022/11/25 13:08:59;;;;;;;10.27;8.30;;;10.50;99.90;;;;;;10311713;23;20233;-77
2022/11/25 13:14:12;;;;;;;10.90;8.80;;;10.50;99.90;;;;;;10373409;28;20627;-77
2022/11/25 13:19:16;;;;;;;9.70;7.90;;;10.50;99.90;;;;;;10372921;28;20232;-77
2022/11/25 13:24:28;;;;;;;11.00;8.77;;;10.50;99.90;;;;;;10347888;28;20269;-79
2022/11/25 13:29:54;;;;;;;9.97;7.60;;;10.50;99.90;;;;;;10365193;28;20302;-76
2022/11/25 13:35:38;;;;;;;9.20;7.80;;;10.60;99.90;;;;;;10356282;28;20190;-77
2022/11/25 13:40:41;;;;;;;12.23;7.90;;;10.60;99.90;;;;;;10356686;28;20606;-77
2022/11/25 13:45:45;;;;;;;10.50;7.10;;;10.60;99.90;;;;;;10373328;28;20230;-76
2022/11/25 13:50:48;;;;;;;8.90;7.03;;;10.60;99.90;;;;;;10373836;28;20226;-78
2022/11/25 13:56:11;;;;;;;12.07;6.80;;;10.70;99.90;;;;;;10355404;28;20214;-76
2022/11/25 14:01:26;;;;;;;9.33;5.50;;;10.70;99.90;;;;;;10332971;28;20207;-77
2022/11/25 14:06:50;;;;;;;6.43;4.93;;;10.70;99.90;;;;;;10370355;28;20222;-79
2022/11/25 14:12:23;;;;;;;7.50;5.60;;;10.60;99.90;;;;;;10355211;28;20201;-77
2022/11/25 14:18:01;;;;;;;13.10;6.57;;;10.60;99.90;;;;;;10372453;28;20612;-77
2022/11/25 14:23:34;;;;;;;18.33;11.23;;;10.60;99.90;;;;;;10372133;28;20697;-76
2022/11/25 14:28:42;;;;;;;14.70;7.17;;;10.60;99.90;;;;;;10371177;28;20246;-76
2022/11/25 14:33:52;;;;;;;5.67;3.60;;;10.60;99.90;;;;;;10371242;28;20589;-76
2022/11/25 14:38:58;;;;;;;10.23;3.57;;;10.60;99.90;;;;;;10353376;28;20277;-76
2022/11/25 14:44:04;;;;;;;6.00;3.23;;;10.60;99.90;;;;;;10370395;28;20709;-77
2022/11/25 14:49:08;;;;;;;8.27;4.07;;;10.50;99.90;;;;;;10352636;28;20246;-78
2022/11/25 14:54:10;;;;;;;9.13;4.57;;;10.50;99.90;;;;;;10366291;28;20741;-78
2022/11/25 14:59:13;;;;;;;11.57;6.80;;;10.60;99.90;;;;;;10369340;28;20226;-77
2022/11/25 15:04:20;;;;;;;7.47;3.50;;;10.60;99.90;;;;;;10369773;28;20234;-77
2022/11/25 15:09:25;;;;;;;5.37;3.60;;;10.60;99.90;;;;;;10365279;28;20680;-78
2022/11/25 15:14:29;;;;;;;6.27;3.87;;;10.60;99.90;;;;;;10352670;28;20206;-77
2022/11/25 15:19:35;;;;;;;4.90;4.10;;;10.60;99.90;;;;;;10352005;28;20249;-76
2022/11/25 15:24:42;;;;;;;9.20;4.60;;;10.50;99.90;;;;;;10371893;28;20216;-78
2022/11/25 15:29:46;;;;;;;8.87;6.10;;;10.50;99.90;;;;;;10382966;28;20222;-78
2022/11/25 15:34:50;;;;;;;10.33;5.33;;;10.50;99.90;;;;;;10376830;28;20406;-79
2022/11/25 15:40:26;;;;;;;8.17;4.80;;;10.50;99.90;;;;;;10359447;28;20314;-79
2022/11/25 15:45:34;;;;;;;6.53;4.37;;;10.50;99.90;;;;;;10338090;28;20273;-78
2022/11/25 15:50:41;;;;;;;6.73;4.57;;;10.50;99.90;;;;;;10337527;28;20199;-79
2022/11/25 15:55:43;;;;;;;5.90;4.17;;;10.50;99.90;;;;;;10371632;28;20250;-77
2022/11/25 16:01:00;;;;;;;6.60;4.30;;;10.40;99.90;;;;;;10373452;28;20194;-78
2022/11/25 16:06:22;;;;;;;10.63;6.07;;;10.40;99.90;;;;;;10373879;28;20226;-78
2022/11/25 16:11:28;;;;;;;11.83;6.40;;;10.40;99.90;;;;;;10373652;28;20226;-78
2022/11/25 16:16:31;;;;;;;9.60;6.90;;;10.40;99.90;;;;;;10332022;28;20221;-78
2022/11/25 16:21:50;;;;;;;11.40;9.70;;;10.40;99.90;;;;;;10360095;28;20293;-78
2022/11/25 16:26:55;;;;;;;15.57;11.70;;;10.40;99.90;;;;;;10374040;28;20222;-78
2022/11/25 16:31:57;;;;;;;19.77;15.00;;;10.30;99.90;;;;;;10377680;28;20199;-77
2022/11/25 16:37:00;;;;;;;18.47;12.17;;;10.40;99.90;;;;;;10357441;28;20215;-78
2022/11/25 16:42:03;;;;;;;18.63;13.13;;;10.40;99.90;;;;;;10372850;28;20672;-78
2022/11/25 16:47:05;;;;;;;19.83;15.40;;;10.30;99.90;;;;;;10373958;28;20214;-77
2022/11/25 16:52:09;;;;;;;19.97;15.50;;;10.30;99.90;;;;;;10380360;28;20674;-77
2022/11/25 16:57:17;;;;;;;13.53;9.77;;;10.30;99.90;;;;;;10380436;28;20218;-77
2022/11/25 17:02:21;;;;;;;13.43;9.50;;;10.30;99.90;;;;;;10378620;28;20230;-77
2022/11/25 17:07:24;;;;;;;11.33;7.77;;;10.20;99.90;;;;;;10362694;28;20218;-78
2022/11/25 17:12:31;;;;;;;112.33;62.90;;;10.20;99.90;;;;;;10383452;28;20295;-78
2022/11/25 17:17:34;;;;;;;48.40;35.03;;;10.20;99.90;;;;;;10387279;28;20223;-76
2022/11/25 17:22:37;;;;;;;50.43;39.80;;;10.20;99.90;;;;;;10384685;28;20289;-78
2022/11/25 17:27:40;;;;;;;32.00;26.10;;;10.10;99.90;;;;;;10383103;28;20211;-78
2022/11/25 17:32:42;;;;;;;14.90;13.30;;;10.10;99.90;;;;;;10385439;28;20259;-79
2022/11/25 17:37:46;;;;;;;12.83;10.87;;;10.10;99.90;;;;;;10393225;28;20277;-77
2022/11/25 17:42:48;;;;;;;16.27;11.73;;;10.20;99.90;;;;;;10378401;28;20215;-80
2022/11/25 17:47:50;;;;;;;20.40;16.00;;;10.10;99.90;;;;;;10361144;28;20774;-77
2022/11/25 17:52:54;;;;;;;15.53;12.50;;;10.10;99.90;;;;;;10362386;28;20639;-78
2022/11/25 17:57:56;;;;;;;11.27;10.07;;;10.20;99.90;;;;;;10379027;28;20268;-80
2022/11/25 18:02:58;;;;;;;12.77;9.87;;;10.20;99.90;;;;;;10378185;28;20210;-80
2022/11/25 18:08:01;;;;;;;14.47;9.53;;;10.10;99.90;;;;;;10370482;28;20409;-77
2022/11/25 18:13:05;;;;;;;10.43;6.70;;;10.10;99.90;;;;;;10375121;28;20225;-77
2022/11/25 18:18:20;;;;;;;11.30;7.60;;;10.20;99.90;;;;;;10390014;28;20218;-78
2022/11/25 18:23:23;;;;;;;10.10;7.47;;;10.10;99.90;;;;;;10359128;28;20215;-78
2022/11/25 18:28:28;;;;;;;11.80;9.17;;;10.10;99.90;;;;;;10373527;28;20261;-79
2022/11/25 18:33:31;;;;;;;13.50;8.20;;;10.10;99.90;;;;;;10375356;28;20214;-79
2022/11/25 18:38:34;;;;;;;11.63;8.90;;;10.10;99.90;;;;;;10376287;28;20214;-80
2022/11/25 18:43:36;;;;;;;13.47;8.07;;;10.10;99.90;;;;;;10358650;28;20216;-80
2022/11/25 18:48:39;;;;;;;13.00;8.77;;;10.10;99.90;;;;;;10341927;28;20211;-80
2022/11/25 18:53:42;;;;;;;12.17;8.07;;;10.10;99.90;;;;;;10387634;28;20199;-80
2022/11/25 18:58:50;;;;;;;10.97;6.80;;;10.10;99.90;;;;;;10373762;28;20214;-78
2022/11/25 19:03:52;;;;;;;9.87;6.87;;;10.10;99.90;;;;;;10357975;28;20241;-80
2022/11/25 19:08:56;;;;;;;12.67;8.37;;;10.10;99.90;;;;;;10350414;28;20329;-78
2022/11/25 19:14:03;;;;;;;15.70;8.50;;;10.00;99.90;;;;;;10369961;28;20194;-77
2022/11/25 19:19:05;;;;;;;21.03;8.43;;;10.00;99.90;;;;;;10342921;28;20230;-82
2022/11/25 19:24:12;;;;;;;14.17;8.60;;;9.90;99.90;;;;;;10332309;28;20274;-80
2022/11/25 19:29:18;;;;;;;10.70;7.13;;;9.80;99.90;;;;;;10357890;28;20706;-77
2022/11/25 19:34:26;;;;;;;13.73;6.40;;;9.80;99.90;;;;;;10398237;28;20196;-76
2022/11/25 19:39:35;;;;;;;12.83;7.80;;;9.80;99.90;;;;;;10356653;28;20225;-76
2022/11/25 19:44:38;;;;;;;12.80;8.73;;;9.80;99.90;;;;;;10341764;28;20242;-76
2022/11/25 19:49:40;;;;;;;8.40;6.30;;;9.80;99.90;;;;;;10355938;28;20229;-78
2022/11/25 19:54:43;;;;;;;11.00;7.67;;;9.80;99.90;;;;;;10350653;28;20202;-78
2022/11/25 19:59:46;;;;;;;12.83;7.90;;;9.80;99.90;;;;;;10353515;28;20252;-76
2022/11/25 20:04:51;;;;;;;12.37;7.50;;;9.80;99.90;;;;;;10340855;28;20674;-75
2022/11/25 20:09:55;;;;;;;16.43;6.77;;;9.70;99.90;;;;;;10343513;28;20680;-80
2022/11/25 20:14:57;;;;;;;13.23;7.20;;;9.70;99.90;;;;;;10361070;28;20274;-77
2022/11/25 20:20:03;;;;;;;9.60;7.10;;;9.70;99.90;;;;;;10339531;28;20650;-77
2022/11/25 20:25:09;;;;;;;13.93;7.50;;;9.60;99.90;;;;;;10376335;28;20379;-79
2022/11/25 20:30:16;;;;;;;11.27;7.20;;;9.60;99.90;;;;;;10336249;28;20613;-77
2022/11/25 20:35:19;;;;;;;15.77;8.90;;;9.60;99.90;;;;;;10367721;28;20721;-76
2022/11/25 20:40:27;;;;;;;10.37;8.00;;;9.60;99.90;;;;;;10358423;28;20191;-78
2022/11/25 20:45:29;;;;;;;11.77;8.30;;;9.70;99.90;;;;;;10358607;28;20219;-78
2022/11/25 20:50:31;;;;;;;13.40;8.37;;;9.70;99.90;;;;;;10357539;28;20344;-78
2022/11/25 20:55:35;;;;;;;9.63;7.00;;;9.70;99.90;;;;;;10356484;28;20313;-79
2022/11/25 21:00:37;;;;;;;10.80;8.00;;;9.70;99.90;;;;;;10355875;28;20269;-78
2022/11/25 21:05:40;;;;;;;9.03;6.73;;;9.70;99.90;;;;;;10349943;28;20695;-79
2022/11/25 21:10:43;;;;;;;12.17;7.37;;;9.60;99.90;;;;;;10349052;28;20198;-77
2022/11/25 21:15:47;;;;;;;9.60;6.63;;;9.60;99.90;;;;;;10369317;28;20709;-78
2022/11/25 21:20:51;;;;;;;13.33;6.77;;;9.60;99.90;;;;;;10372050;28;20218;-76
2022/11/25 21:25:57;;;;;;;10.10;6.20;;;9.50;99.90;;;;;;10372240;28;20313;-77
2022/11/25 21:30:59;;;;;;;11.33;7.20;;;9.50;99.90;;;;;;10373175;28;20583;-77
2022/11/25 21:36:01;;;;;;;13.40;7.30;;;9.40;99.90;;;;;;10373088;28;20269;-80
2022/11/25 21:41:04;;;;;;;9.40;7.10;;;9.40;99.90;;;;;;10373332;28;20285;-80
2022/11/25 21:46:10;;;;;;;12.20;6.40;;;9.40;99.90;;;;;;10357577;28;20750;-76
2022/11/25 21:51:13;;;;;;;9.93;6.10;;;9.40;99.90;;;;;;10377616;28;20670;-76
2022/11/25 21:56:20;;;;;;;9.30;7.43;;;9.40;99.90;;;;;;10354997;28;20222;-78
2022/11/25 22:01:23;;;;;;;17.10;7.70;;;9.30;99.90;;;;;;10372592;28;20281;-76
2022/11/25 22:06:27;;;;;;;10.47;5.67;;;9.30;99.90;;;;;;10372529;28;20249;-79
2022/11/25 22:11:32;;;;;;;11.20;6.80;;;9.30;99.90;;;;;;10373439;28;20647;-77
2022/11/25 22:16:36;;;;;;;9.23;6.60;;;9.20;99.90;;;;;;10371762;28;20702;-80
2022/11/25 22:21:38;;;;;;;15.90;11.30;;;9.20;99.90;;;;;;10372065;28;20191;-77
2022/11/25 22:26:42;;;;;;;10.90;7.23;;;9.20;99.90;;;;;;10354108;28;20670;-79
2022/11/25 22:31:45;;;;;;;9.83;6.30;;;9.20;99.90;;;;;;10353589;28;20277;-79
2022/11/25 22:36:48;;;;;;;10.47;6.73;;;9.20;99.90;;;;;;10369449;28;20215;-77
2022/11/25 22:41:55;;;;;;;14.10;6.43;;;9.20;99.90;;;;;;10369862;28;20257;-79
2022/11/25 22:46:57;;;;;;;9.20;5.60;;;9.20;99.90;;;;;;10370308;28;20245;-77
2022/11/25 22:51:59;;;;;;;9.70;5.73;;;9.20;99.90;;;;;;10370440;28;20294;-79
2022/11/25 22:57:03;;;;;;;10.70;5.77;;;9.20;99.90;;;;;;10370631;28;20598;-78
2022/11/25 23:02:05;;;;;;;8.40;5.53;;;9.20;99.90;;;;;;10353456;28;20216;-80
2022/11/25 23:07:11;;;;;;;13.20;8.80;;;9.20;99.90;;;;;;10370376;28;20317;-76
2022/11/25 23:12:16;;;;;;;8.80;6.30;;;9.20;99.90;;;;;;10348317;28;20900;-76
2022/11/25 23:17:21;;;;;;;9.20;5.57;;;9.20;99.90;;;;;;10346706;28;20665;-80
2022/11/25 23:22:23;;;;;;;6.83;5.20;;;9.30;99.90;;;;;;10362289;28;20205;-77
2022/11/25 23:27:26;;;;;;;7.60;4.80;;;9.30;99.90;;;;;;10384528;28;20214;-76
2022/11/25 23:32:28;;;;;;;11.10;7.93;;;9.30;99.90;;;;;;10348379;28;20244;-77
2022/11/25 23:37:30;;;;;;;9.50;5.60;;;9.30;99.90;;;;;;10385993;28;20301;-77
2022/11/25 23:42:34;;;;;;;9.67;5.93;;;9.30;99.90;;;;;;10341950;28;20198;-76
2022/11/25 23:47:36;;;;;;;12.97;5.60;;;9.40;99.90;;;;;;10352046;28;20634;-79
2022/11/25 23:52:38;;;;;;;8.90;5.40;;;9.30;99.90;;;;;;10363742;28;20573;-76
2022/11/25 23:57:46;;;;;;;8.23;5.80;;;9.30;99.90;;;;;;10387626;28;20308;-80
